Time;durP1;ratioP1;P1;durP2;ratioP2;P2;SDS_P1;SDS_P2;PMS_P1;PMS_P2;Temp;Humidity;BMP_temperature;BMP_pressure;BME280_temperature;BME280_humidity;BME280_pressure;Samples;Min_cycle;Max_cycle;Signal;HPM_P1;HPM_P2
2021/12/02 00:01:44;;;;;;;2.70;2.50;;;0.70;99.90;0.30;95123.00;;;;4945521;29;20459;-78
2021/12/02 00:04:33;;;;;;;5.40;3.50;;;0.70;99.90;0.50;95124.00;;;;4942664;29;20462;-76
2021/12/02 00:07:22;;;;;;;3.80;3.10;;;0.70;99.90;0.50;95117.00;;;;4950616;29;20438;-77
2021/12/02 00:10:13;;;;;;;3.10;2.67;;;0.80;99.90;0.60;95123.00;;;;4951982;29;20428;-77
2021/12/02 00:13:02;;;;;;;2.93;2.73;;;0.90;99.90;0.30;95120.00;;;;4949912;29;20728;-76
2021/12/02 00:15:56;;;;;;;2.63;2.43;;;0.90;99.90;0.20;95121.00;;;;4951598;29;20428;-76
2021/12/02 00:21:54;;;;;;;5.87;2.50;;;0.80;99.90;0.10;95112.00;;;;4949438;28;20447;-78
2021/12/02 00:24:48;;;;;;;3.67;2.90;;;0.70;99.90;0.10;95121.00;;;;4948682;29;20431;-76
2021/12/02 00:27:42;;;;;;;2.97;2.67;;;0.90;99.90;0.10;95131.00;;;;4951285;28;20815;-77
2021/12/02 00:30:32;;;;;;;3.47;2.70;;;0.70;99.90;0.30;95127.00;;;;4941244;28;20955;-77
2021/12/02 00:33:21;;;;;;;4.83;3.43;;;0.70;99.90;0.40;95140.00;;;;4951668;29;20420;-77
2021/12/02 00:36:11;;;;;;;5.00;2.63;;;0.70;99.90;0.40;95131.00;;;;4947035;29;20455;-77
2021/12/02 00:39:08;;;;;;;3.93;2.77;;;0.80;99.90;0.30;95137.00;;;;4954968;29;20714;-77
2021/12/02 00:41:57;;;;;;;5.30;3.63;;;0.80;99.90;0.40;95144.00;;;;4952960;28;20455;-77
2021/12/02 00:44:48;;;;;;;4.00;3.00;;;0.80;99.90;0.20;95144.00;;;;4931485;28;20455;-77
2021/12/02 00:47:38;;;;;;;2.80;2.53;;;0.80;99.90;0.20;95145.00;;;;4946563;28;20432;-77
2021/12/02 00:50:27;;;;;;;4.23;3.00;;;2.30;99.90;0.20;95134.00;;;;4947956;28;20805;-77
2021/12/02 00:53:20;;;;;;;4.27;2.50;;;0.70;99.90;0.40;95131.00;;;;4946221;29;20441;-77
2021/12/02 00:56:16;;;;;;;3.80;3.00;;;0.70;99.90;0.50;95127.00;;;;4949558;29;20456;-77
2021/12/02 00:59:06;;;;;;;3.23;2.33;;;0.80;99.90;0.70;95127.00;;;;4949838;29;20482;-77
2021/12/02 01:01:58;;;;;;;3.37;2.73;;;0.80;99.90;0.40;95131.00;;;;4951834;28;20460;-79
2021/12/02 01:04:49;;;;;;;4.30;2.80;;;0.90;99.90;0.10;95138.00;;;;4941525;29;20444;-79
2021/12/02 01:07:39;;;;;;;3.73;1.93;;;0.90;99.90;0.00;95136.00;;;;4951865;29;20440;-77
2021/12/02 01:10:28;;;;;;;2.77;1.93;;;0.80;99.90;-0.10;95135.00;;;;4951601;28;20446;-76
2021/12/02 01:13:17;;;;;;;2.93;2.30;;;0.80;99.90;0.10;95125.00;;;;4950685;29;20440;-78
2021/12/02 01:16:07;;;;;;;1.97;1.80;;;0.80;99.90;0.20;95136.00;;;;4941458;29;20782;-78
2021/12/02 01:18:58;;;;;;;2.40;2.13;;;0.80;99.90;0.20;95139.00;;;;4958032;29;20545;-77
2021/12/02 01:21:49;;;;;;;5.43;2.17;;;0.80;99.90;0.00;95126.00;;;;4955503;28;20464;-77
2021/12/02 01:24:41;;;;;;;2.43;2.23;;;0.70;99.90;0.40;95107.00;;;;4954308;29;20479;-79
2021/12/02 01:27:30;;;;;;;2.67;2.47;;;0.80;99.90;0.40;95095.00;;;;4945016;29;20428;-79
2021/12/02 01:30:19;;;;;;;9.67;3.47;;;0.80;99.90;0.30;95086.00;;;;4954486;28;20810;-78
2021/12/02 01:33:08;;;;;;;2.80;2.10;;;0.80;99.90;0.40;95084.00;;;;4953413;29;20439;-78
2021/12/02 01:36:01;;;;;;;3.97;2.60;;;0.90;99.90;0.40;95107.00;;;;4949560;29;20439;-75
2021/12/02 01:38:50;;;;;;;3.70;3.00;;;0.90;99.90;0.60;95101.00;;;;4937228;29;20471;-78
2021/12/02 01:41:47;;;;;;;2.43;2.07;;;1.00;99.90;0.50;95109.00;;;;4949049;28;20456;-77
2021/12/02 01:44:42;;;;;;;2.93;2.30;;;1.00;99.90;0.40;95103.00;;;;4942306;28;20553;-78
2021/12/02 01:47:33;;;;;;;2.37;2.17;;;1.00;99.90;0.40;95100.00;;;;4942857;28;20433;-76
2021/12/02 01:50:26;;;;;;;1.83;1.70;;;1.00;99.90;0.40;95110.00;;;;4949704;28;20435;-76
2021/12/02 01:53:17;;;;;;;1.70;1.60;;;0.90;99.90;0.50;95111.00;;;;4936340;29;20443;-76
2021/12/02 01:56:11;;;;;;;3.13;2.37;;;1.00;99.90;0.70;95102.00;;;;4943952;28;20437;-77
2021/12/02 01:59:10;;;;;;;2.43;2.30;;;1.00;99.90;0.70;95104.00;;;;4944080;29;20471;-78
2021/12/02 02:02:00;;;;;;;2.93;2.33;;;1.10;99.90;0.90;95088.00;;;;4950526;28;20518;-78
2021/12/02 02:04:49;;;;;;;2.13;2.00;;;1.10;99.90;0.80;95096.00;;;;4950416;29;20435;-78
2021/12/02 02:07:50;;;;;;;2.00;1.90;;;1.20;99.90;0.80;95095.00;;;;4948801;29;21026;-78
2021/12/02 02:10:42;;;;;;;2.30;2.00;;;1.30;99.90;0.70;95102.00;;;;4948480;28;20460;-75
2021/12/02 02:13:31;;;;;;;2.60;2.40;;;1.30;99.90;0.60;95087.00;;;;4945562;29;20436;-76
2021/12/02 02:16:20;;;;;;;2.40;2.20;;;1.20;99.90;0.80;95099.00;;;;4946338;29;20450;-77
2021/12/02 02:19:11;;;;;;;2.70;1.80;;;1.20;99.90;0.90;95092.00;;;;4946842;29;20845;-78
2021/12/02 02:22:01;;;;;;;2.63;2.17;;;1.20;99.90;0.80;95095.00;;;;4949906;28;20478;-78
2021/12/02 02:24:51;;;;;;;2.23;1.80;;;1.20;99.90;0.30;95099.00;;;;4954517;29;20427;-78
2021/12/02 02:27:40;;;;;;;2.47;2.10;;;1.20;99.90;0.60;95087.00;;;;4955465;28;20432;-77
2021/12/02 02:30:29;;;;;;;2.00;1.67;;;1.20;99.90;0.60;95092.00;;;;4953513;28;20975;-77
2021/12/02 02:33:20;;;;;;;2.77;2.10;;;1.10;99.90;0.70;95098.00;;;;4956908;29;20431;-78
2021/12/02 02:36:19;;;;;;;3.90;2.20;;;1.10;99.90;0.60;95098.00;;;;4943168;29;20487;-79
2021/12/02 02:39:10;;;;;;;2.07;1.93;;;1.10;99.90;0.60;95097.00;;;;4947942;29;20468;-78
2021/12/02 02:41:59;;;;;;;3.60;1.93;;;1.10;99.90;0.80;95096.00;;;;4956566;28;20452;-78
2021/12/02 02:44:48;;;;;;;2.73;1.97;;;1.10;99.90;0.80;95106.00;;;;4948179;29;20455;-77
2021/12/02 02:47:37;;;;;;;2.03;1.83;;;1.20;99.90;0.90;95116.00;;;;4957616;28;20986;-78
2021/12/02 02:50:27;;;;;;;2.80;2.20;;;1.20;99.90;0.70;95111.00;;;;4956040;28;20436;-77
2021/12/02 02:53:21;;;;;;;2.70;2.03;;;1.20;99.90;0.80;95112.00;;;;4949765;29;20424;-75
2021/12/02 02:56:14;;;;;;;2.23;1.80;;;1.20;99.90;1.00;95101.00;;;;4952518;29;20440;-77
2021/12/02 02:59:11;;;;;;;1.73;1.53;;;1.30;99.90;1.10;95104.00;;;;4949791;29;20794;-76
2021/12/02 03:02:06;;;;;;;1.83;1.53;;;1.30;99.90;1.00;95103.00;;;;4954923;29;20464;-78
2021/12/02 03:05:02;;;;;;;1.67;1.53;;;1.40;99.90;0.80;95112.00;;;;4950161;28;20945;-76
2021/12/02 03:07:54;;;;;;;3.73;1.60;;;1.30;99.90;0.70;95110.00;;;;4945343;29;20435;-78
2021/12/02 03:10:46;;;;;;;2.57;1.97;;;1.30;99.90;0.80;95114.00;;;;4953682;28;20456;-77
2021/12/02 03:13:41;;;;;;;2.10;1.90;;;1.30;99.90;1.00;95101.00;;;;4954128;29;20439;-77
2021/12/02 03:16:44;;;;;;;4.77;2.20;;;1.30;99.90;1.00;95114.00;;;;4954090;29;20432;-78
2021/12/02 03:19:34;;;;;;;2.80;2.17;;;1.40;99.90;0.90;95121.00;;;;4953121;29;20467;-77
2021/12/02 03:22:23;;;;;;;2.57;2.37;;;1.80;99.90;0.90;95126.00;;;;4952760;28;20471;-78
2021/12/02 03:25:12;;;;;;;3.73;1.90;;;1.30;99.90;0.70;95126.00;;;;4952674;29;20432;-76
2021/12/02 03:28:03;;;;;;;2.87;2.10;;;1.30;99.90;0.80;95120.00;;;;4952472;29;20450;-77
2021/12/02 03:30:53;;;;;;;2.00;1.80;;;1.30;99.90;1.00;95124.00;;;;4941277;28;20843;-76
2021/12/02 03:33:43;;;;;;;3.10;1.90;;;1.30;99.90;0.80;95106.00;;;;4952161;28;20646;-78
2021/12/02 03:36:32;;;;;;;3.20;2.53;;;1.30;99.90;0.80;95108.00;;;;4951347;28;20424;-78
2021/12/02 03:39:21;;;;;;;1.93;1.73;;;1.30;99.90;0.80;95104.00;;;;4954431;28;20460;-77
2021/12/02 03:42:10;;;;;;;2.50;1.87;;;1.30;99.90;1.00;95096.00;;;;4952804;28;20452;-78
2021/12/02 03:45:00;;;;;;;1.80;1.67;;;1.30;99.90;1.10;95097.00;;;;4947251;29;20432;-76
2021/12/02 03:47:50;;;;;;;3.07;1.90;;;1.30;99.90;1.10;95088.00;;;;4950974;29;20439;-77
2021/12/02 03:50:39;;;;;;;2.30;2.07;;;1.40;99.90;1.10;95088.00;;;;4952756;28;20460;-77
2021/12/02 03:53:28;;;;;;;2.13;1.93;;;1.40;99.90;1.10;95083.00;;;;4946775;29;20436;-77
2021/12/02 03:56:17;;;;;;;2.17;1.97;;;1.50;99.90;1.00;95079.00;;;;4946410;29;20466;-77
2021/12/02 03:59:06;;;;;;;3.40;1.70;;;1.50;99.90;1.10;95087.00;;;;4950785;29;20443;-77
2021/12/02 04:01:55;;;;;;;2.47;1.90;;;1.50;99.90;1.10;95082.00;;;;4951354;28;20463;-77
2021/12/02 04:04:46;;;;;;;1.73;1.57;;;1.50;99.90;0.90;95081.00;;;;4941340;28;20432;-77
2021/12/02 04:07:35;;;;;;;1.83;1.73;;;1.50;99.90;0.90;95084.00;;;;4943798;28;20612;-77
2021/12/02 04:10:24;;;;;;;1.60;1.50;;;1.50;99.90;0.90;95062.00;;;;4942085;28;20465;-79
2021/12/02 04:13:18;;;;;;;2.20;2.00;;;1.70;99.90;0.80;95060.00;;;;4951572;29;20822;-78
2021/12/02 04:16:14;;;;;;;1.53;1.43;;;1.40;99.90;1.00;95050.00;;;;4953394;28;20458;-78
2021/12/02 04:19:05;;;;;;;3.67;1.97;;;1.40;99.90;1.10;95055.00;;;;4949931;29;20963;-77
2021/12/02 04:21:57;;;;;;;2.87;2.23;;;1.40;99.90;1.10;95048.00;;;;4950175;28;20839;-77
2021/12/02 04:24:46;;;;;;;2.37;2.00;;;1.50;99.90;1.20;95039.00;;;;4950521;29;20439;-77
2021/12/02 04:27:35;;;;;;;1.90;1.80;;;1.50;99.90;1.20;95046.00;;;;4951580;29;20438;-77
2021/12/02 04:30:27;;;;;;;2.10;2.00;;;1.50;99.90;1.30;95041.00;;;;4950911;28;20436;-77
2021/12/02 04:33:16;;;;;;;3.10;1.70;;;1.50;99.90;1.20;95030.00;;;;4947568;28;20458;-78
2021/12/02 04:36:06;;;;;;;2.47;2.27;;;1.60;99.90;1.00;95029.00;;;;4940618;29;20429;-77
2021/12/02 04:38:57;;;;;;;1.70;1.60;;;1.50;99.90;0.80;95021.00;;;;4949359;29;20436;-78
2021/12/02 04:41:45;;;;;;;4.50;1.73;;;1.50;99.90;0.80;95025.00;;;;4947754;29;20456;-76
2021/12/02 04:44:34;;;;;;;1.77;1.67;;;1.40;99.90;0.90;95021.00;;;;4929654;28;20441;-77
2021/12/02 04:47:23;;;;;;;1.40;1.30;;;1.40;99.90;1.10;95018.00;;;;4945954;29;20421;-77
2021/12/02 04:50:13;;;;;;;2.40;2.20;;;1.40;99.90;1.20;95028.00;;;;4949870;29;20451;-78
2021/12/02 04:53:02;;;;;;;6.43;1.80;;;1.40;99.90;1.20;95027.00;;;;4947656;29;20548;-77
2021/12/02 04:55:52;;;;;;;3.33;1.53;;;1.50;99.90;1.20;95038.00;;;;4946270;29;20444;-79
2021/12/02 04:58:41;;;;;;;1.80;1.70;;;1.50;99.90;1.10;95024.00;;;;4949160;29;20446;-76
2021/12/02 05:01:30;;;;;;;2.00;1.80;;;0.90;99.90;1.20;95037.00;;;;4948356;28;20487;-78
2021/12/02 05:04:19;;;;;;;1.83;1.47;;;1.50;99.90;1.40;95028.00;;;;4941604;28;20495;-77
2021/12/02 05:07:08;;;;;;;1.73;1.43;;;1.50;99.90;1.30;95026.00;;;;4944280;29;20454;-77
2021/12/02 05:09:57;;;;;;;3.03;1.70;;;1.60;99.90;1.30;95029.00;;;;4937978;28;20439;-77
2021/12/02 05:12:47;;;;;;;4.27;2.37;;;1.60;99.90;1.30;95033.00;;;;4937148;29;20444;-78
2021/12/02 05:15:36;;;;;;;2.90;2.60;;;1.60;99.90;1.20;95032.00;;;;4942653;29;20431;-77
2021/12/02 05:18:25;;;;;;;3.57;2.57;;;1.60;99.90;1.20;95035.00;;;;4938215;28;20448;-77
2021/12/02 05:21:14;;;;;;;2.40;2.13;;;1.60;99.90;1.00;95043.00;;;;4940497;28;21539;-77
2021/12/02 05:24:03;;;;;;;2.07;1.87;;;1.50;99.90;1.10;95043.00;;;;4941467;29;20436;-76
2021/12/02 05:26:52;;;;;;;2.07;1.87;;;1.60;99.90;1.30;95048.00;;;;4947367;29;20428;-76
2021/12/02 05:29:43;;;;;;;3.77;2.40;;;1.50;99.90;1.40;95043.00;;;;4943912;29;20459;-78
2021/12/02 05:32:31;;;;;;;2.63;2.37;;;1.60;99.90;1.40;95046.00;;;;4942258;29;20810;-78
2021/12/02 05:35:24;;;;;;;2.20;1.70;;;1.60;99.90;1.30;95052.00;;;;4933684;29;20428;-80
2021/12/02 05:38:14;;;;;;;2.30;2.10;;;1.60;99.90;1.30;95040.00;;;;4940443;29;20476;-79
2021/12/02 05:41:03;;;;;;;2.13;1.93;;;1.70;99.90;1.30;95054.00;;;;4939486;28;20463;-78
2021/12/02 05:43:52;;;;;;;2.43;1.97;;;1.60;99.90;1.30;95052.00;;;;4936595;29;20810;-78
2021/12/02 05:46:42;;;;;;;2.57;2.00;;;1.70;99.90;1.00;95048.00;;;;4937151;29;20439;-79
2021/12/02 05:49:31;;;;;;;2.70;2.50;;;1.70;99.90;1.20;95048.00;;;;4945185;29;20928;-79
2021/12/02 05:52:20;;;;;;;4.57;2.60;;;1.60;99.90;1.30;95060.00;;;;4947301;28;20502;-77
2021/12/02 05:55:10;;;;;;;2.97;2.50;;;1.60;99.90;1.20;95067.00;;;;4937084;29;20435;-77
2021/12/02 05:57:59;;;;;;;6.80;3.83;;;1.70;99.90;1.30;95066.00;;;;4937893;29;20443;-78
2021/12/02 06:00:48;;;;;;;6.67;3.70;;;1.70;99.90;1.30;95070.00;;;;4949232;28;20472;-79
2021/12/02 06:03:40;;;;;;;4.13;3.50;;;1.70;99.90;1.30;95071.00;;;;4948845;28;20958;-78
2021/12/02 06:06:29;;;;;;;3.33;2.77;;;1.70;99.90;1.40;95084.00;;;;4949273;29;20544;-77
2021/12/02 06:09:19;;;;;;;7.73;3.90;;;1.70;99.90;1.50;95074.00;;;;4930882;29;20425;-78
2021/12/02 06:12:08;;;;;;;6.37;4.23;;;1.80;99.90;1.60;95078.00;;;;4946137;28;20439;-78
2021/12/02 06:14:57;;;;;;;5.63;3.60;;;1.80;99.90;1.70;95088.00;;;;4949358;29;20451;-79
2021/12/02 06:17:47;;;;;;;17.37;4.70;;;1.90;99.90;1.70;95077.00;;;;4949293;29;20884;-78
2021/12/02 06:20:37;;;;;;;6.43;3.43;;;1.90;99.90;1.70;95076.00;;;;4948076;28;20482;-77
2021/12/02 06:23:26;;;;;;;4.13;2.60;;;1.90;99.90;1.60;95089.00;;;;4949427;29;20442;-79
2021/12/02 06:26:15;;;;;;;4.03;3.20;;;1.90;99.90;1.40;95100.00;;;;4948136;29;20436;-78
2021/12/02 06:29:05;;;;;;;7.87;3.37;;;1.80;99.90;1.40;95098.00;;;;4939141;29;21248;-80
2021/12/02 06:31:54;;;;;;;4.47;3.87;;;1.80;99.90;1.50;95111.00;;;;4951056;29;20454;-80
2021/12/02 06:34:42;;;;;;;4.27;2.93;;;1.80;99.90;1.10;95106.00;;;;4951916;29;20519;-81
2021/12/02 06:37:33;;;;;;;5.57;3.33;;;1.80;99.90;1.20;95115.00;;;;4952053;29;20432;-80
2021/12/02 06:40:22;;;;;;;3.17;2.43;;;1.70;99.90;1.10;95111.00;;;;4951625;28;20442;-80
2021/12/02 06:43:13;;;;;;;4.80;3.57;;;1.70;99.90;1.10;95111.00;;;;4952310;29;20435;-80
2021/12/02 06:46:02;;;;;;;4.47;3.20;;;1.70;99.90;1.10;95116.00;;;;4942596;29;20470;-79
2021/12/02 06:48:51;;;;;;;6.63;3.40;;;1.70;99.90;1.20;95113.00;;;;4946492;29;20448;-80
2021/12/02 06:51:40;;;;;;;3.80;3.20;;;1.70;99.90;1.30;95133.00;;;;4951873;28;20983;-81
2021/12/02 06:54:30;;;;;;;7.20;4.03;;;1.70;99.90;1.30;95137.00;;;;4946130;29;20428;-81
2021/12/02 06:57:19;;;;;;;5.13;2.93;;;1.70;99.90;1.20;95138.00;;;;4942293;29;20429;-81
2021/12/02 07:00:11;;;;;;;4.70;3.20;;;1.70;99.90;1.20;95137.00;;;;4950478;29;20435;-81
2021/12/02 07:03:01;;;;;;;3.63;3.33;;;1.70;99.90;1.30;95142.00;;;;4946547;29;20445;-81
2021/12/02 07:05:50;;;;;;;2.97;2.77;;;1.70;99.90;1.40;95145.00;;;;4937709;29;20455;-81
2021/12/02 07:08:39;;;;;;;3.93;2.83;;;1.70;99.90;1.50;95150.00;;;;4941267;28;20443;-82
2021/12/02 07:11:29;;;;;;;4.47;3.67;;;1.80;99.90;1.50;95146.00;;;;4949209;28;20443;-81
2021/12/02 07:14:21;;;;;;;4.07;3.10;;;1.80;99.90;1.60;95154.00;;;;4953627;29;20432;-78
2021/12/02 07:17:10;;;;;;;3.10;2.63;;;1.80;99.90;1.70;95151.00;;;;4949723;29;20439;-82
2021/12/02 07:19:59;;;;;;;4.37;3.40;;;1.90;99.90;1.70;95152.00;;;;4950334;28;20990;-81
2021/12/02 07:22:48;;;;;;;3.40;3.10;;;1.90;99.90;1.80;95151.00;;;;4947853;29;20480;-81
2021/12/02 07:25:40;;;;;;;5.60;2.90;;;1.90;99.90;1.70;95155.00;;;;4948388;29;20548;-80
2021/12/02 07:28:35;;;;;;;6.57;3.77;;;2.00;99.90;1.70;95152.00;;;;4952689;29;20451;-80
2021/12/02 07:31:25;;;;;;;5.33;3.57;;;2.00;99.90;1.80;95155.00;;;;4944138;28;20471;-81
2021/12/02 07:34:18;;;;;;;6.07;3.60;;;2.00;99.90;1.90;95155.00;;;;4948528;29;20444;-82
2021/12/02 07:37:07;;;;;;;8.77;5.17;;;2.00;99.90;1.70;95158.00;;;;4944371;29;20420;-78
2021/12/02 07:39:57;;;;;;;7.13;5.07;;;2.00;99.90;1.70;95155.00;;;;4961671;28;20443;-81
2021/12/02 07:42:47;;;;;;;5.07;4.57;;;2.00;99.90;1.60;95164.00;;;;4954206;29;20467;-80
2021/12/02 07:45:38;;;;;;;4.77;3.57;;;2.00;99.90;1.50;95153.00;;;;4940589;29;20462;-82
2021/12/02 07:48:27;;;;;;;3.77;3.37;;;2.00;99.90;1.30;95156.00;;;;4940019;29;20789;-78
2021/12/02 07:51:17;;;;;;;3.97;3.37;;;1.90;99.90;1.50;95169.00;;;;4951625;28;20629;-82
2021/12/02 07:54:06;;;;;;;3.53;2.93;;;1.90;99.90;1.60;95161.00;;;;4951511;29;20428;-81
2021/12/02 07:56:55;;;;;;;3.80;3.43;;;1.90;99.90;1.60;95155.00;;;;4951529;29;20443;-81
2021/12/02 07:59:44;;;;;;;3.00;2.80;;;1.90;99.90;1.70;95174.00;;;;4951975;29;20443;-81
2021/12/02 08:02:35;;;;;;;3.30;2.93;;;1.90;99.90;1.70;95164.00;;;;4952691;29;20833;-80
2021/12/02 08:05:27;;;;;;;4.47;2.70;;;1.90;99.90;1.70;95173.00;;;;4949678;29;20470;-83
2021/12/02 08:08:16;;;;;;;3.40;2.53;;;2.00;99.90;1.70;95172.00;;;;4950007;29;20435;-82
2021/12/02 08:11:06;;;;;;;4.33;3.93;;;2.00;99.90;1.70;95166.00;;;;4945741;28;20974;-77
2021/12/02 08:13:57;;;;;;;2.87;2.67;;;2.00;99.90;1.90;95176.00;;;;4946569;29;20440;-80
2021/12/02 08:16:46;;;;;;;4.20;2.80;;;2.00;99.90;1.90;95161.00;;;;4940473;28;20429;-78
2021/12/02 08:19:36;;;;;;;2.90;2.57;;;2.00;99.90;1.80;95159.00;;;;4945600;28;20434;-78
2021/12/02 08:22:25;;;;;;;3.47;3.13;;;2.10;99.90;1.90;95154.00;;;;4936060;29;20486;-80
2021/12/02 08:25:15;;;;;;;4.43;3.13;;;2.10;99.90;2.00;95160.00;;;;4946029;29;20458;-77
2021/12/02 08:28:05;;;;;;;5.83;3.43;;;2.10;99.90;2.10;95161.00;;;;4944314;28;20452;-79
2021/12/02 08:30:54;;;;;;;6.07;2.63;;;2.20;99.90;2.10;95158.00;;;;4933716;28;20825;-78
2021/12/02 08:33:43;;;;;;;4.57;3.27;;;2.20;99.90;2.00;95160.00;;;;4945792;28;20436;-77
2021/12/02 08:36:42;;;;;;;4.77;4.03;;;2.20;99.90;2.10;95161.00;;;;4945591;29;20440;-80
2021/12/02 08:39:31;;;;;;;3.73;3.37;;;2.30;99.90;2.20;95167.00;;;;4946919;29;20445;-78
2021/12/02 08:42:21;;;;;;;3.67;2.90;;;2.30;99.90;2.00;95162.00;;;;4945945;28;20475;-78
2021/12/02 08:45:11;;;;;;;4.13;3.20;;;2.30;99.90;2.00;95155.00;;;;4947145;29;20440;-78
2021/12/02 08:48:01;;;;;;;4.73;4.23;;;2.30;99.90;1.90;95184.00;;;;4948341;29;20455;-78
2021/12/02 08:50:50;;;;;;;4.40;4.00;;;2.20;99.90;1.60;95170.00;;;;4948173;28;20839;-79
2021/12/02 08:53:40;;;;;;;6.73;4.23;;;2.20;99.90;1.60;95167.00;;;;4948341;29;20427;-80
2021/12/02 08:56:29;;;;;;;4.17;3.30;;;2.20;99.90;1.50;95171.00;;;;4941076;29;20805;-78
2021/12/02 08:59:19;;;;;;;3.97;3.23;;;2.10;99.90;1.60;95170.00;;;;4948794;29;20424;-80
2021/12/02 09:02:08;;;;;;;5.93;3.20;;;2.10;99.90;1.60;95174.00;;;;4945681;28;20468;-77
2021/12/02 09:04:57;;;;;;;3.80;3.37;;;2.10;99.90;1.80;95176.00;;;;4945544;29;20484;-79
2021/12/02 09:07:47;;;;;;;6.03;3.43;;;2.10;99.90;1.90;95184.00;;;;4945469;29;20447;-78
2021/12/02 09:10:38;;;;;;;4.90;3.93;;;2.10;99.90;2.10;95195.00;;;;4938201;28;20447;-79
2021/12/02 09:13:27;;;;;;;6.70;3.67;;;2.20;99.90;2.30;95187.00;;;;4941430;29;20459;-79
2021/12/02 09:16:16;;;;;;;6.70;4.37;;;2.30;99.90;2.40;95177.00;;;;4932724;29;20438;-78
2021/12/02 09:19:05;;;;;;;4.23;3.83;;;2.30;99.90;2.30;95185.00;;;;4941957;29;20443;-78
2021/12/02 09:21:54;;;;;;;5.77;5.27;;;2.40;99.90;2.40;95181.00;;;;4947557;28;20475;-80
2021/12/02 09:24:43;;;;;;;4.70;3.67;;;2.50;99.90;2.60;95179.00;;;;4945636;29;20447;-78
2021/12/02 09:27:33;;;;;;;4.53;3.50;;;2.50;99.90;2.60;95187.00;;;;4945630;28;20451;-79
2021/12/02 09:30:24;;;;;;;4.33;3.93;;;2.60;99.90;2.60;95195.00;;;;4945053;28;20447;-77
2021/12/02 09:33:14;;;;;;;5.60;4.03;;;2.70;99.90;2.50;95185.00;;;;4935048;29;20432;-78
2021/12/02 09:36:03;;;;;;;4.53;3.70;;;2.70;99.90;2.50;95181.00;;;;4944413;29;20542;-78
2021/12/02 09:38:52;;;;;;;5.13;3.80;;;2.70;99.90;2.70;95175.00;;;;4944351;29;20439;-78
2021/12/02 09:41:42;;;;;;;5.80;4.50;;;2.70;99.90;2.80;95174.00;;;;4934184;29;20468;-78
2021/12/02 09:44:33;;;;;;;4.40;3.93;;;2.80;99.90;2.80;95169.00;;;;4937804;29;20447;-78
2021/12/02 09:47:22;;;;;;;10.57;4.30;;;2.80;99.90;2.70;95171.00;;;;4945432;29;20439;-78
2021/12/02 09:50:16;;;;;;;5.57;4.60;;;2.90;99.90;2.70;95161.00;;;;4945532;29;20436;-80
2021/12/02 09:53:09;;;;;;;4.60;3.77;;;2.90;99.90;2.70;95149.00;;;;4936085;29;20430;-79
2021/12/02 09:56:07;;;;;;;6.93;3.87;;;2.90;99.90;2.60;95146.00;;;;4944095;29;20444;-77
2021/12/02 09:59:03;;;;;;;3.97;3.67;;;2.90;99.90;2.50;95146.00;;;;4944626;29;20447;-79
2021/12/02 10:01:59;;;;;;;6.90;4.40;;;2.80;99.90;2.50;95141.00;;;;4939940;28;20653;-78
2021/12/02 10:04:53;;;;;;;3.90;3.57;;;2.80;99.90;2.60;95137.00;;;;4935415;29;20425;-79
2021/12/02 10:07:55;;;;;;;5.07;4.57;;;2.80;99.90;2.70;95131.00;;;;4943331;29;20432;-78
2021/12/02 10:10:54;;;;;;;6.70;4.90;;;2.80;99.90;2.80;95138.00;;;;4944259;28;20451;-77
2021/12/02 10:13:49;;;;;;;4.30;3.90;;;2.90;99.90;3.00;95127.00;;;;4942389;29;20458;-79
2021/12/02 10:16:41;;;;;;;8.13;4.50;;;2.90;99.90;2.90;95131.00;;;;4943637;29;20443;-77
2021/12/02 10:19:31;;;;;;;4.73;4.13;;;3.00;99.90;2.80;95129.00;;;;4941074;29;20439;-78
2021/12/02 10:22:22;;;;;;;6.30;4.73;;;3.00;99.90;2.60;95127.00;;;;4946730;28;20983;-78
2021/12/02 10:25:11;;;;;;;7.97;5.20;;;3.00;99.90;2.60;95121.00;;;;4939311;29;20438;-80
2021/12/02 10:28:07;;;;;;;6.80;5.03;;;2.90;99.90;2.70;95121.00;;;;4945110;29;20813;-79
2021/12/02 10:31:00;;;;;;;4.93;4.47;;;2.90;99.90;2.80;95130.00;;;;4947776;28;20450;-78
2021/12/02 10:33:54;;;;;;;4.77;4.13;;;2.90;99.90;2.80;95123.00;;;;4946152;29;20428;-78
2021/12/02 10:36:47;;;;;;;6.10;4.87;;;2.90;99.90;2.80;95125.00;;;;4941110;29;20439;-78
2021/12/02 10:39:36;;;;;;;5.13;4.27;;;2.90;99.90;2.70;95114.00;;;;4944222;28;20430;-79
2021/12/02 10:42:25;;;;;;;4.27;3.87;;;2.90;99.90;2.70;95118.00;;;;4947684;28;20962;-77
2021/12/02 10:45:22;;;;;;;5.63;4.50;;;2.90;99.90;2.80;95120.00;;;;4949603;29;20455;-79
2021/12/02 10:48:11;;;;;;;4.70;4.30;;;2.90;99.90;2.80;95117.00;;;;4942016;29;20424;-78
2021/12/02 10:50:59;;;;;;;6.33;5.60;;;2.90;99.90;2.80;95110.00;;;;4953157;28;20454;-76
2021/12/02 10:54:02;;;;;;;12.53;8.10;;;2.90;99.90;2.80;95098.00;;;;4955075;28;20487;-79
2021/12/02 10:56:54;;;;;;;40.77;29.63;;;2.90;99.90;2.90;95114.00;;;;4944600;29;20436;-76
2021/12/02 10:59:47;;;;;;;17.97;13.67;;;2.90;99.90;2.70;95107.00;;;;4949717;29;20439;-79
2021/12/02 11:02:39;;;;;;;14.40;9.83;;;2.90;99.90;2.70;95108.00;;;;4950171;28;20458;-78
2021/12/02 11:05:31;;;;;;;12.57;8.80;;;2.90;99.90;2.60;95099.00;;;;4950290;29;20428;-79
2021/12/02 11:08:22;;;;;;;12.30;8.00;;;2.90;99.90;2.60;95098.00;;;;4943377;29;20438;-79
2021/12/02 11:11:24;;;;;;;12.63;9.13;;;2.80;99.90;2.60;95101.00;;;;4947328;28;20448;-78
2021/12/02 11:14:15;;;;;;;9.33;7.67;;;2.90;99.90;2.60;95097.00;;;;4941579;29;20448;-78
2021/12/02 11:17:09;;;;;;;7.80;6.47;;;2.80;99.90;2.50;95080.00;;;;4945051;29;20959;-78
2021/12/02 11:20:00;;;;;;;8.80;6.87;;;2.80;99.90;2.50;95098.00;;;;4949212;29;20440;-78
2021/12/02 11:22:55;;;;;;;9.47;7.07;;;2.80;99.90;2.70;95096.00;;;;4943187;29;20475;-78
2021/12/02 11:25:57;;;;;;;9.63;7.37;;;2.80;99.90;2.60;95103.00;;;;4941437;29;20459;-78
2021/12/02 11:28:49;;;;;;;8.93;5.90;;;2.80;99.90;2.40;95100.00;;;;4936833;29;20702;-78
2021/12/02 11:31:44;;;;;;;8.20;6.30;;;2.80;99.90;2.50;95105.00;;;;4944784;29;20961;-77
2021/12/02 11:34:33;;;;;;;6.67;6.07;;;2.80;99.90;2.60;95101.00;;;;4942260;28;20434;-78
2021/12/02 11:37:22;;;;;;;8.43;5.93;;;2.80;99.90;2.80;95096.00;;;;4939499;29;20425;-78
2021/12/02 11:40:16;;;;;;;8.53;6.30;;;2.80;99.90;2.90;95088.00;;;;4940436;29;20435;-78
2021/12/02 11:43:05;;;;;;;10.67;7.00;;;2.90;99.90;2.90;95084.00;;;;4950232;29;20587;-78
2021/12/02 11:45:59;;;;;;;9.93;7.13;;;2.90;99.90;2.80;95081.00;;;;4946534;28;20459;-78
2021/12/02 11:48:48;;;;;;;12.80;8.50;;;2.90;99.90;2.80;95080.00;;;;4948912;29;20436;-78
2021/12/02 11:51:38;;;;;;;10.80;8.90;;;2.90;99.90;2.80;95070.00;;;;4945107;28;20456;-78
2021/12/02 11:54:27;;;;;;;14.20;9.20;;;2.90;99.90;2.80;95080.00;;;;4943419;29;21002;-76
2021/12/02 11:57:16;;;;;;;19.90;13.20;;;2.90;99.90;2.70;95067.00;;;;4947970;28;20439;-78
2021/12/02 12:00:11;;;;;;;27.23;18.40;;;3.00;99.90;2.70;95052.00;;;;4948954;28;20471;-78
2021/12/02 12:03:06;;;;;;;15.97;12.63;;;2.90;99.90;2.80;95059.00;;;;4947761;29;20474;-77
2021/12/02 12:06:00;;;;;;;11.90;8.00;;;2.90;99.90;2.70;95060.00;;;;4949383;29;20424;-78
2021/12/02 12:08:52;;;;;;;8.47;6.67;;;2.90;99.90;2.70;95052.00;;;;4945583;29;20478;-78
2021/12/02 12:11:47;;;;;;;7.17;6.53;;;2.90;99.90;2.90;95057.00;;;;4949325;28;20447;-78
2021/12/02 12:14:39;;;;;;;6.40;5.80;;;3.00;99.90;2.60;95054.00;;;;4950883;29;20450;-77
2021/12/02 12:17:41;;;;;;;5.20;4.70;;;2.90;99.90;2.50;95058.00;;;;4951990;29;20428;-78
2021/12/02 12:21:01;;;;;;;7.70;4.50;;;2.90;99.90;2.50;95046.00;;;;4952093;28;20432;-77
2021/12/02 12:24:01;;;;;;;5.90;4.03;;;2.80;99.90;2.50;95055.00;;;;4952425;29;20995;-78
2021/12/02 12:26:50;;;;;;;5.10;4.60;;;2.80;99.90;2.70;95051.00;;;;4950961;29;20431;-77
2021/12/02 12:29:40;;;;;;;6.87;5.27;;;2.90;99.90;3.00;95048.00;;;;4946059;29;20447;-78
2021/12/02 12:36:01;;;;;;;9.97;8.97;;;2.90;99.90;2.90;95041.00;;;;4950977;29;20432;-78
2021/12/02 12:38:52;;;;;;;9.30;6.00;;;3.00;99.90;2.80;95043.00;;;;4949830;29;20497;-77
2021/12/02 12:41:40;;;;;;;8.57;7.77;;;3.00;99.90;2.80;95035.00;;;;4941670;29;20458;-78
2021/12/02 12:44:47;;;;;;;9.87;7.67;;;3.00;99.90;2.80;95038.00;;;;4928356;29;20465;-81
2021/12/02 12:47:48;;;;;;;8.57;6.17;;;3.00;99.90;2.90;95034.00;;;;4941995;29;20670;-79
2021/12/02 12:50:40;;;;;;;6.17;5.10;;;3.00;99.90;2.80;95029.00;;;;4933137;28;20446;-80
2021/12/02 12:53:38;;;;;;;9.20;7.83;;;3.00;99.90;2.70;95021.00;;;;4945612;29;20432;-79
2021/12/02 12:56:42;;;;;;;18.93;14.67;;;3.00;99.90;2.80;95034.00;;;;4949164;29;20965;-80
2021/12/02 12:59:49;;;;;;;18.10;10.43;;;3.00;99.90;2.80;95039.00;;;;4946042;29;20431;-79
2021/12/02 13:02:55;;;;;;;14.33;11.03;;;3.00;99.90;3.00;95036.00;;;;4940199;29;20450;-80
2021/12/02 13:05:49;;;;;;;11.13;8.80;;;3.00;99.90;3.00;95045.00;;;;4938341;29;20807;-78